This is the latest recevied weather packets stored in our database for station/object KD8NVS-13. If no packets are shown the sender has not sent any weather packets the latest 1 day(s).
| Time | Temp. | Humidity | Pressure | Rain* | Wind** | Luminosity | Snow |
|---|---|---|---|---|---|---|---|
| 1778032362 | 15.56° C | 97% | 998 hPa | 1.78 mm | - | 0 W/m² | - |
| 1778031755 | 15.56° C | 97% | 998 hPa | 1.02 mm | - | 0 W/m² | - |
| 1778031452 | 15.56° C | 97% | 998 hPa | 0.76 mm | - | 0 W/m² | - |
| 1778030543 | 15.56° C | 97% | 997.6 hPa | 0.25 mm | - | 0 W/m² | - |
| 1778030240 | 15.56° C | 96% | 997.6 hPa | 0 mm | - | 0 W/m² | - |
| 1778029936 | 15.56° C | 96% | 997.6 hPa | 0 mm | - | 0 W/m² | - |
| 1778029635 | 15.56° C | 96% | 997.6 hPa | 0 mm | - | 0 W/m² | - |
| 1778029332 | 15.56° C | 96% | 997.6 hPa | 0 mm | - | 0 W/m² | - |
| 1778029029 | 15.56° C | 96% | 998 hPa | 0.25 mm | - | 0 W/m² | - |
| 1778028725 | 15.56° C | 96% | 997.6 hPa | 0.25 mm | - | 0 W/m² | - |
| 1778028421 | 15.56° C | 96% | 998 hPa | 0.25 mm | - | 0 W/m² | - |
| 1778028119 | 15.56° C | 96% | 998 hPa | 0 mm | - | 0 W/m² | - |
| 1778027815 | 15.56° C | 96% | 997.6 hPa | 0 mm | - | 0 W/m² | - |
| 1778027511 | 15.56° C | 96% | 998 hPa | 0 mm | - | 0 W/m² | - |
| 1778027207 | 15.56° C | 96% | 997.6 hPa | 0 mm | - | 1 W/m² | - |
| 1778026903 | 15.56° C | 96% | 998 hPa | 0 mm | - | 2 W/m² | - |
| 1778026599 | 15.56° C | 96% | 998 hPa | 0 mm | - | 2 W/m² | - |
| 1778026297 | 15.56° C | 96% | 998 hPa | 0 mm | - | 3 W/m² | - |
| 1778025994 | 15.56° C | 96% | 998 hPa | 0 mm | - | 3 W/m² | - |
| 1778024480 | 16.11° C | 96% | 998 hPa | 0 mm | - | 17 W/m² | - |
| 1778023875 | 16.11° C | 96% | 998.3 hPa | 0 mm | - | 12 W/m² | - |
| 1778022665 | 16.11° C | 95% | 998 hPa | 0 mm | - | 25 W/m² | - |
| 1778020846 | 16.11° C | 94% | 998.7 hPa | 2.79 mm | - | 20 W/m² | - |
| 1778019329 | 18.33° C | 79% | 998 hPa | 0 mm | - | 16 W/m² | - |
| 1778017514 | 21.67° C | 62% | 997.3 hPa | 0 mm | - | 49 W/m² | - |
* Rain latest hour (hover to see other rain measurements)
** Current wind speed in m/s (hover to see current wind gust speed)